Latest Weather Observations for Maryborough

IDQ60801

Issued at 9:02 pm EST Friday 22 May 2015 (issued every 30 minutes, with the page automatically refreshed every 10 minutes)

About weather observations | Map of weather stations | Latest weather observations for QLD | Other Formats
Station Details ID: 040126 Name: MARYBOROUGH Lat: -25.52 Lon: 152.72 Height: 10.28 m
Data from the previous 72 hours. | See also: Recent months at Maryborough
Date/Time
EST
Temp
°C
App
Temp
°C
Dew
Point
Rel
Hum
%
Delta-T
°C
Wind Press
QNH
hPa
Press
MSL
hPa
Rain
since 9 am
mm
Dir
 
Spd
km/h
Gust
km/h
Spd
kts
Gust
kts
22/09:00pm 12.5 10.1 7.0 69 2.6 W 9 13 5 7 1020.3 1020.3 0.0
22/08:30pm 12.4 10.8 6.5 67 2.8 WNW 4 9 2 5 1020.2 - 0.0
22/08:00pm 13.9 11.8 6.5 61 3.5 W 7 15 4 8 1020.0 - 0.0
22/07:30pm 14.9 10.5 6.5 57 4.1 SW 19 28 10 15 1019.6 - 0.0
22/07:00pm 15.0 10.9 6.3 56 4.2 WSW 17 24 9 13 1019.2 - 0.0
22/06:30pm 15.9 9.8 6.6 54 4.5 WSW 28 41 15 22 1018.8 - 0.0
22/06:00pm 16.4 11.7 6.0 50 5.0 SW 20 32 11 17 1018.4 1018.4 0.0
22/05:30pm 17.2 13.6 6.7 50 5.2 W 15 20 8 11 1017.6 - 0.0
22/05:00pm 18.3 13.7 6.5 46 5.9 WSW 20 32 11 17 1017.2 - 0.0
22/04:30pm 19.2 14.0 5.6 41 6.7 SW 22 37 12 20 1017.0 - 0.0
22/04:00pm 20.0 15.1 5.3 38 7.2 SW 20 30 11 16 1016.6 - 0.0
22/03:30pm 21.1 16.0 5.9 37 7.6 WSW 22 30 12 16 1016.3 - 0.0
22/03:00pm 21.5 16.1 6.2 37 7.7 WSW 24 32 13 17 1016.0 1016.0 0.0
22/02:30pm 21.2 14.5 3.9 32 8.3 WSW 28 41 15 22 1016.0 - 0.0
22/02:00pm 21.4 15.2 4.5 33 8.2 WSW 26 37 14 20 1016.1 - 0.0
22/01:30pm 21.6 14.5 3.3 30 8.7 SW 30 43 16 23 1016.2 - 0.0
22/01:00pm 21.6 14.4 5.1 34 8.2 WSW 32 39 17 21 1016.5 - 0.0
22/12:30pm 21.2 14.2 3.9 32 8.3 WSW 30 41 16 22 1016.5 - 0.0
22/12:00pm 21.1 14.1 5.9 37 7.6 W 32 44 17 24 1016.9 1016.9 0.0
22/11:30am 21.2 16.0 8.8 45 6.6 W 26 33 14 18 1017.3 - 0.0
22/11:00am 19.9 15.2 9.2 50 5.7 WSW 24 32 13 17 1017.8 - 0.0
22/10:30am 20.1 15.1 8.1 46 6.2 WSW 24 37 13 20 1018.1 - 0.0
22/10:00am 20.2 16.6 10.6 54 5.2 SW 20 26 11 14 1018.2 - 0.0
22/09:30am 19.5 15.9 10.5 56 4.9 SW 20 28 11 15 1018.3 - 0.0
22/09:00am 18.8 14.5 10.9 60 4.3 SSW 24 35 13 19 1018.3 1018.3 1.6
22/08:30am 17.9 15.5 12.6 71 3.0 SW 17 22 9 12 1018.2 - 1.6
22/08:00am 17.6 15.7 12.9 74 2.6 WSW 15 20 8 11 1018.1 - 1.6
22/07:30am 17.5 15.9 13.8 79 2.1 WSW 15 19 8 10 1017.8 - 1.6
22/07:00am 17.5 16.4 14.4 82 1.8 WSW 13 17 7 9 1017.8 - 1.6
22/06:30am 17.2 17.0 14.7 85 1.4 W 9 13 5 7 1017.5 - 1.6
22/06:00am 17.1 17.4 15.1 88 1.2 W 7 9 4 5 1017.1 1017.1 1.6
22/05:30am 17.3 17.8 15.6 90 1.0 W 7 9 4 5 1016.6 - 1.6
22/05:00am 17.3 17.9 15.8 91 0.9 WSW 7 11 4 6 1016.1 - 1.6
22/04:30am 17.3 17.5 15.8 91 0.9 SW 9 13 5 7 1015.8 - 1.6
22/04:00am 17.3 17.4 15.6 90 1.0 SW 9 13 5 7 1016.1 - 1.6
22/03:30am 17.4 17.3 15.9 91 0.9 SSW 11 17 6 9 1016.2 - 1.6
22/03:00am 17.5 16.9 15.7 89 1.1 SSW 13 20 7 11 1016.3 1016.3 1.6
22/02:30am 17.5 16.8 15.5 88 1.2 SSW 13 17 7 9 1016.4 - 1.6
22/02:00am 17.7 17.5 15.7 88 1.2 SSW 11 15 6 8 1016.8 - 1.6
22/01:30am 18.6 18.0 15.7 83 1.7 SW 13 20 7 11 1016.9 - 0.6
22/01:00am 19.2 19.2 15.1 77 2.4 SSW 9 13 5 7 1016.7 - 0.4
22/12:30am 19.1 19.2 15.4 79 2.2 S 9 13 5 7 1016.7 - 0.4
22/12:00am 19.6 19.2 16.1 80 2.1 SSW 13 17 7 9 1017.1 1017.1 0.4
 
Date/Time
EST
Temp
°C
App
Temp
°C
Dew
Point
Rel
Hum
%
Delta-T
°C
Wind Press
QNH
hPa
Press
MSL
hPa
Rain
since 9 am
mm
Dir
 
Spd
km/h
Gust
km/h
Spd
kts
Gust
kts
21/11:30pm 19.8 20.3 17.4 86 1.5 WSW 11 15 6 8 1017.4 - 0.4
21/11:00pm 19.5 21.3 18.2 92 0.8 S 6 9 3 5 1017.3 - 0.4
21/10:30pm 19.8 20.9 18.8 94 0.6 SSW 11 13 6 7 1017.5 - 0.4
21/10:00pm 20.1 21.6 18.9 93 0.8 SW 9 11 5 6 1017.8 - 0.4
21/09:41pm 20.5 22.8 19.8 96 0.4 WSW 7 9 4 5 1017.7 - 0.4
21/09:30pm 20.5 23.9 20.2 98 0.2 SW 2 9 1 5 1017.7 - 0.4
21/09:00pm 20.3 22.8 19.8 97 0.3 SW 6 7 3 4 1017.5 1017.5 0.4
21/08:50pm 20.7 22.9 20.5 99 0.1 SW 9 11 5 6 1017.5 - 0.4
21/08:42pm 20.5 21.9 20.3 99 0.1 SW 13 17 7 9 1017.4 - 0.4
21/08:30pm 18.8 21.5 17.8 94 0.6 CALM 0 0 0 0 1017.2 - 0.4
21/08:00pm 19.6 22.3 18.6 94 0.6 N 2 7 1 4 1017.0 - 0.4
21/07:49pm 19.8 21.6 18.8 94 0.6 N 7 9 4 5 1017.0 - 0.4
21/07:30pm 20.6 22.7 19.4 93 0.8 N 7 7 4 4 1016.9 - 0.4
21/07:00pm 21.4 23.2 19.5 89 1.2 N 9 13 5 7 1016.7 - 0.4
21/06:30pm 21.8 24.0 19.7 88 1.3 N 7 9 4 5 1016.7 - 0.4
21/06:00pm 22.1 25.6 19.6 86 1.6 CALM 0 0 0 0 1016.6 1016.6 0.4
21/05:30pm 22.3 24.5 19.7 85 1.7 N 7 9 4 5 1016.3 - 0.4
21/05:00pm 22.8 24.5 19.4 81 2.2 NNE 9 13 5 7 1015.9 - 0.4
21/04:30pm 23.4 25.2 19.5 79 2.5 NNE 9 13 5 7 1015.6 - 0.4
21/04:00pm 24.1 25.4 19.4 75 3.0 NNE 11 15 6 8 1015.5 - 0.4
21/03:30pm 24.5 25.9 19.6 74 3.2 NE 11 15 6 8 1015.2 - 0.4
21/03:00pm 25.1 27.1 19.9 73 3.4 NE 9 13 5 7 1015.2 1015.2 0.4
21/02:30pm 25.9 28.1 19.5 68 4.1 NNE 7 17 4 9 1015.2 - 0.4
21/02:00pm 25.3 27.0 19.4 70 3.8 N 9 13 5 7 1015.5 - 0.4
21/01:30pm 24.5 26.7 19.6 74 3.2 NW 7 11 4 6 1015.8 - 0.4
21/01:00pm 23.9 25.5 20.0 79 2.5 W 11 15 6 8 1016.4 - 0.2
21/12:30pm 23.0 24.9 20.5 86 1.6 W 11 13 6 7 1017.0 - 0.2
21/12:00pm 23.9 26.7 19.6 77 2.8 NE 4 11 2 6 1017.7 1017.7 0.0
21/11:30am 24.4 27.2 20.5 79 2.5 NW 6 7 3 4 1018.2 - 0.0
21/11:04am 23.9 26.3 20.0 79 2.5 NW 7 11 4 6 1018.7 - 0.0
21/11:00am 23.5 25.1 19.2 77 2.7 NNW 9 15 5 8 1018.7 - 0.0
21/10:30am 23.2 25.4 20.3 84 1.9 N 9 13 5 7 1019.0 - 0.0
21/10:00am 21.3 23.8 19.9 92 0.9 NNW 6 9 3 5 1019.4 - 0.0
21/09:30am 20.6 23.0 19.6 94 0.6 SW 6 9 3 5 1019.8 - 0.0
21/09:28am 20.5 22.7 19.3 93 0.8 SSW 6 9 3 5 1019.8 - 0.0
21/09:00am 19.9 22.7 19.6 98 0.2 N 4 7 2 4 1019.7 1019.7 0.2
21/08:30am 19.4 22.7 19.2 99 0.1 CALM 0 0 0 0 1019.7 - 0.2
21/08:00am 19.2 22.5 19.0 99 0.1 CALM 0 6 0 3 1019.3 - 0.2
21/07:30am 18.7 20.6 18.5 99 0.1 NE 6 7 3 4 1019.4 - 0.2
21/07:00am 18.1 20.9 17.9 99 0.1 CALM 0 0 0 0 1019.1 - 0.2
21/06:30am 17.9 19.8 17.7 99 0.1 NE 4 6 2 3 1018.7 - 0.2
21/06:10am 17.7 19.9 17.5 99 0.1 NE 2 6 1 3 1018.5 - 0.2
21/06:00am 17.8 20.4 17.6 99 0.1 CALM 0 0 0 0 1018.6 1018.6 0.2
21/05:50am 17.9 20.6 17.7 99 0.1 CALM 0 0 0 0 1018.6 - 0.2
21/05:30am 17.8 19.7 17.6 99 0.1 NE 4 7 2 4 1018.4 - 0.0
21/05:00am 17.8 19.1 17.6 99 0.1 NE 7 11 4 6 1018.2 - 0.0
21/04:30am 17.6 19.0 17.4 99 0.1 NE 6 6 3 3 1018.1 - 0.0
21/04:00am 17.1 19.5 16.9 99 0.1 CALM 0 0 0 0 1018.0 - 0.0
21/03:30am 17.0 19.3 16.8 99 0.1 CALM 0 0 0 0 1017.8 - 0.0
21/03:00am 17.0 19.3 16.7 98 0.2 CALM 0 0 0 0 1017.9 1017.9 0.0
21/02:30am 17.2 19.6 17.0 99 0.1 CALM 0 0 0 0 1018.1 - 0.0
21/02:00am 17.3 19.7 17.1 99 0.1 CALM 0 0 0 0 1018.4 - 0.0
21/01:30am 17.1 19.5 16.9 99 0.1 CALM 0 0 0 0 1018.5 - 0.0
21/01:02am 17.1 19.5 16.9 99 0.1 CALM 0 0 0 0 1018.8 - 0.0
21/01:00am 17.2 19.6 17.0 99 0.1 CALM 0 0 0 0 1018.9 - 0.0
21/12:37am 17.2 19.6 17.0 99 0.1 CALM 0 0 0 0 1018.9 - 0.0
21/12:30am 17.0 19.3 16.8 99 0.1 CALM 0 0 0 0 1018.9 - 0.0
21/12:23am 16.8 19.0 16.5 98 0.2 CALM 0 0 0 0 1018.9 - 0.0
21/12:01am 16.2 18.2 15.9 98 0.2 CALM 0 0 0 0 1019.2 - 0.0
21/12:00am 16.3 18.3 16.0 98 0.2 CALM 0 0 0 0 1019.2 1019.2 0.0
 
Date/Time
EST
Temp
°C
App
Temp
°C
Dew
Point
Rel
Hum
%
Delta-T
°C
Wind Press
QNH
hPa
Press
MSL
hPa
Rain
since 9 am
mm
Dir
 
Spd
km/h
Gust
km/h
Spd
kts
Gust
kts
20/11:30pm 16.2 18.1 15.7 97 0.3 CALM 0 0 0 0 1019.2 - 0.0
20/11:00pm 16.3 18.3 16.0 98 0.2 CALM 0 0 0 0 1019.2 - 0.0
20/10:30pm 16.4 18.4 15.9 97 0.3 CALM 0 0 0 0 1019.4 - 0.0
20/10:29pm 16.4 18.4 15.9 97 0.3 CALM 0 0 0 0 1019.4 - 0.0
20/10:12pm 16.5 18.5 16.0 97 0.3 CALM 0 0 0 0 1019.5 - 0.0
20/10:00pm 16.4 18.3 15.8 96 0.4 CALM 0 0 0 0 1019.4 - 0.0
20/09:30pm 17.0 19.2 16.4 96 0.4 CALM 0 0 0 0 1019.4 - 0.0
20/09:17pm 17.2 19.5 16.7 97 0.3 CALM 0 0 0 0 1019.6 - 0.0
20/09:07pm 17.6 20.1 17.3 98 0.2 CALM 0 0 0 0 1019.6 - 0.0
20/09:00pm 17.8 20.4 17.6 99 0.1 CALM 0 0 0 0 1019.6 1019.6 0.0
20/08:30pm 18.0 20.6 17.5 97 0.3 CALM 0 0 0 0 1019.6 - 0.0
20/08:00pm 17.9 20.3 17.1 95 0.5 CALM 0 0 0 0 1019.4 - 0.0
20/07:30pm 17.9 19.4 16.6 92 0.8 NE 4 7 2 4 1019.0 - 0.0
20/07:21pm 18.4 19.8 17.4 94 0.6 NE 6 7 3 4 1018.9 - 0.0
20/07:00pm 19.0 20.1 17.0 88 1.2 NE 7 9 4 5 1018.8 - 0.0
20/06:30pm 20.0 21.4 17.8 87 1.4 ENE 7 7 4 4 1018.6 - 0.0
20/06:00pm 20.8 22.1 17.6 82 2.0 ENE 7 9 4 5 1018.4 1018.4 0.0
20/05:30pm 21.6 23.0 17.8 79 2.4 ENE 7 9 4 5 1018.1 - 0.0
20/05:00pm 22.6 23.6 17.7 74 3.0 ENE 9 13 5 7 1017.7 - 0.0
20/04:30pm 23.7 24.3 17.7 69 3.7 NE 11 15 6 8 1017.5 - 0.0
20/04:00pm 23.2 23.8 17.6 71 3.5 NE 11 15 6 8 1017.4 - 0.0
20/03:30pm 24.1 24.7 17.6 67 4.0 ENE 11 15 6 8 1017.5 - 0.0
20/03:00pm 24.8 25.9 17.0 62 4.8 NNE 7 9 4 5 1017.4 1017.4 0.0
20/02:30pm 26.0 27.2 17.4 59 5.4 N 7 13 4 7 1017.1 - 0.0
20/02:00pm 26.4 27.5 16.6 55 6.1 E 6 9 3 5 1017.3 - 0.0
20/01:30pm 24.9 25.8 16.6 60 5.1 WNW 7 9 4 5 1017.7 - 0.0
20/01:00pm 26.3 28.5 18.4 61 5.0 NW 4 9 2 5 1018.1 - 0.0
20/12:30pm 24.1 25.1 16.9 64 4.4 WNW 7 15 4 8 1018.6 - 0.0
20/12:00pm 25.7 26.8 18.1 63 4.8 NNE 9 13 5 7 1018.9 1018.9 0.0
20/11:30am 24.3 26.4 17.3 65 4.3 E 2 6 1 3 1019.5 - 0.0
20/11:00am 23.3 24.7 17.3 69 3.7 SE 6 7 3 4 1019.9 - 0.0
20/10:30am 23.2 24.9 18.5 75 3.0 SSW 7 9 4 5 1020.0 - 0.0
20/10:00am 22.1 23.7 18.3 79 2.4 S 7 13 4 7 1020.4 - 0.0
20/09:30am 21.3 23.2 18.5 84 1.8 S 6 9 3 5 1020.5 - 0.0
20/09:00am 19.8 20.6 17.4 86 1.5 S 9 11 5 6 1020.6 1020.6 -
20/08:30am 19.0 19.9 17.5 91 0.9 S 9 11 5 6 1020.5 - -
20/08:00am 18.0 19.2 17.4 96 0.4 SSW 7 9 4 5 1020.5 - -
20/07:45am 17.4 18.7 17.2 99 0.1 SW 6 9 3 5 1020.4 - -
20/07:32am 16.8 17.7 16.6 99 0.1 SW 7 9 4 5 1020.2 - -
20/07:30am 16.7 17.6 16.5 99 0.1 SW 7 9 4 5 1020.2 - -
20/07:00am 16.0 16.2 15.8 99 0.1 SW 9 11 5 6 1020.1 - -
20/06:30am 15.9 16.1 15.7 99 0.1 SW 9 11 5 6 1019.8 - -
20/06:00am 15.5 16.9 15.3 99 0.1 SW 2 6 1 3 1019.5 1019.5 -
20/05:30am 15.7 17.5 15.5 99 0.1 CALM 0 0 0 0 1019.1 - -
20/05:00am 15.9 17.8 15.7 99 0.1 CALM 0 0 0 0 1018.8 - -
20/04:30am 16.2 18.2 16.0 99 0.1 CALM 0 6 0 3 1018.7 - -
20/04:00am 16.9 17.8 16.7 99 0.1 SW 7 9 4 5 1018.7 - -
20/03:30am 17.0 18.0 16.8 99 0.1 SW 7 11 4 6 1018.6 - -
20/03:00am 17.2 17.5 17.0 99 0.1 SW 11 15 6 8 1018.7 1018.7 -
20/02:30am 17.0 17.6 16.8 99 0.1 SW 9 13 5 7 1018.9 - -
20/02:22am 16.9 17.5 16.7 99 0.1 S 9 13 5 7 1018.9 - -
20/02:00am 15.9 17.7 15.4 97 0.3 CALM 0 0 0 0 1018.7 - -
20/01:30am 16.7 17.5 16.4 98 0.2 S 7 9 4 5 1019.0 - -
20/01:00am 16.5 18.5 16.0 97 0.3 CALM 0 0 0 0 1019.0 - -
20/12:30am 17.1 19.5 16.9 99 0.1 CALM 0 0 0 0 1019.2 - -
20/12:00am 17.4 19.8 17.1 98 0.2 CALM 0 6 0 3 1019.5 1019.5 -
 
Date/Time
EST
Temp
°C
App
Temp
°C
Dew
Point
Rel
Hum
%
Delta-T
°C
Wind Press
QNH
hPa
Press
MSL
hPa
Rain
since 9 am
mm
Dir
 
Spd
km/h
Gust
km/h
Spd
kts
Gust
kts
19/11:30pm 17.3 19.6 16.7 96 0.4 CALM 0 0 0 0 1019.6 - -
19/11:00pm 17.5 18.5 16.9 96 0.4 S 7 7 4 4 1019.9 - -
19/10:54pm 17.4 18.4 16.8 96 0.4 S 7 9 4 5 1019.9 - -
19/10:42pm 17.6 18.3 17.1 97 0.3 S 9 11 5 6 1020.1 - -
19/10:30pm 17.4 18.0 16.8 96 0.4 S 9 9 5 5 1020.2 - -
19/10:23pm 17.4 18.3 16.6 95 0.5 S 7 9 4 5 1020.2 - -
19/10:00pm 17.9 18.7 17.4 97 0.3 S 9 9 5 5 1020.3 - -
19/09:51pm 18.0 19.5 17.5 97 0.3 S 6 9 3 5 1020.2 - -
19/09:31pm 17.8 20.2 17.0 95 0.5 CALM 0 2 0 1 1020.2 - -
19/09:30pm 17.9 20.3 17.1 95 0.5 CALM 0 4 0 2 1020.1 - -

Other Formats:

Comma delimited format used in spreadsheet applications
http://www.bom.gov.au/fwo/IDQ60801/IDQ60801.94567.axf

JavaScript Object Notation format (JSON) in row-major order
http://www.bom.gov.au/fwo/IDQ60801/IDQ60801.94567.json